メインページ
METAR-TAF:

METAR-TAF

空港 :

Fort Severn, オンタリオ州, カナダ

緯度: 56-01-08N, 経度: 87-40-34W, 海抜: 16m

現時点の気象観測

当レポートは48分前の03:00(UTC)に作成
西/南西の風 5kt
気温 -31°C
湿度 75%
気圧 1022 hPa
視程: 14.5km
晴天

METAR: CYER 130300Z AUTO 24005KT 9SM CLR M31/M34 A3018 RMK SLP223

時間: 22:48 (03:48 UTC)

予報

当レポートは14時間10分前の13:38(UTC)に作成
予報は12日の 14時(UTC)から 12日の 20時(UTC)まで有効
西/南西の風 10kt
視程: 10km
高度4000ftの雲はほとんどない

TAF: CYER 121338Z 1214/1220 24010KT P6SM FEW040 RMK FCST BASED ON AUTO OBS. NXT FCST WILL BE ISSUED AT 130945Z

4,000以上の空港の気象観測と天気予報(METAR報とTAF報)

利用可能な観測所は地図上に黄色い丸と赤い丸で示す。

丸の上にカーソルを重ねると観測所名を参照できる。

次にクリックすると気象観測と天気予報を参照できる。

マップの切り替え:黒色「×」印の緑ボタンをクリックして拡大、「-」印の緑ボタンをクリックして縮小、緑色の三角印をクリックして隣りの地図に切り替え


METAR-TAF: